createdAt,value
2023-05-05T00:01:25.723Z,71.27
2023-05-05T00:03:52.584Z,72.57
2023-05-05T00:06:19.564Z,73.26
2023-05-05T00:08:46.449Z,72.99
2023-05-05T00:11:13.185Z,73.63
2023-05-05T00:13:39.891Z,72.54
2023-05-05T00:16:06.868Z,73.00
2023-05-05T00:18:33.914Z,74.65
2023-05-05T00:21:01.067Z,74.13
2023-05-05T00:23:27.871Z,74.77
2023-05-05T00:25:54.554Z,73.70
2023-05-05T00:28:21.958Z,73.14
2023-05-05T00:30:48.714Z,72.83
2023-05-05T00:33:15.438Z,72.37
2023-05-05T00:35:42.249Z,73.44
2023-05-05T00:38:09.471Z,71.86
2023-05-05T00:40:37.216Z,71.30
2023-05-05T00:43:05.253Z,71.98
2023-05-05T00:45:32.140Z,72.30
2023-05-05T00:48:00.429Z,74.52
2023-05-05T00:50:29.555Z,75.54
2023-05-05T00:53:04.420Z,75.42
2023-05-05T00:55:32.269Z,76.31
2023-05-05T00:58:00.283Z,77.05
2023-05-05T01:00:27.693Z,76.92
2023-05-05T01:02:55.560Z,76.44
2023-05-05T01:05:24.039Z,79.53
2023-05-05T01:07:59.883Z,81.53
2023-05-05T01:10:37.149Z,82.40
2023-05-05T01:13:21.489Z,83.00
2023-05-05T01:16:10.058Z,84.63
2023-05-05T01:19:23.036Z,85.92
2023-05-05T01:21:57.184Z,85.56
2023-05-05T01:24:39.378Z,86.92
2023-05-05T01:27:39.420Z,88.66
2023-05-05T01:30:43.295Z,88.20
2023-05-05T01:33:15.655Z,88.46
2023-05-05T01:35:50.204Z,88.34
2023-05-05T01:38:25.441Z,89.23
2023-05-05T01:41:14.522Z,90.15
2023-05-05T01:43:45.780Z,89.38
2023-05-05T01:46:14.520Z,90.88
2023-05-05T01:48:43.776Z,90.40
2023-05-05T01:51:12.850Z,91.14
2023-05-05T01:53:39.784Z,91.05
2023-05-05T01:56:08.360Z,91.87
2023-05-05T01:58:36.455Z,91.63
2023-05-05T02:01:04.605Z,92.58
2023-05-05T02:03:34.060Z,92.47
2023-05-05T02:06:02.070Z,92.65
2023-05-05T02:08:30.880Z,91.96
2023-05-05T02:10:58.353Z,91.65
2023-05-05T02:13:26.047Z,92.53
2023-05-05T02:15:53.373Z,89.89
2023-05-05T02:18:22.926Z,89.08
2023-05-05T02:20:50.578Z,88.28
2023-05-05T02:23:17.283Z,87.86
2023-05-05T02:25:49.464Z,87.36
2023-05-05T02:28:21.562Z,88.35
2023-05-05T02:31:00.358Z,87.96
2023-05-05T02:33:32.992Z,87.95
2023-05-05T02:36:07.616Z,90.33
2023-05-05T02:38:37.213Z,90.12
2023-05-05T02:41:05.983Z,89.54
2023-05-05T02:43:34.276Z,89.30
2023-05-05T02:46:01.483Z,89.26
2023-05-05T02:48:31.334Z,88.40
2023-05-05T02:51:00.976Z,89.34
2023-05-05T02:53:32.872Z,88.94
2023-05-05T02:56:26.700Z,88.65
2023-05-05T02:59:28.245Z,89.16
2023-05-05T03:02:08.355Z,90.41
2023-05-05T03:04:42.754Z,89.78
2023-05-05T03:07:19.278Z,89.59
2023-05-05T03:09:58.127Z,89.63
2023-05-05T03:12:31.315Z,88.88
2023-05-05T03:15:14.050Z,89.85
2023-05-05T03:17:43.121Z,90.35
2023-05-05T03:20:12.561Z,89.45
2023-05-05T03:22:42.137Z,90.29
2023-05-05T03:25:12.796Z,89.34
2023-05-05T03:27:41.235Z,89.37
2023-05-05T03:30:09.282Z,89.07
2023-05-05T03:32:42.787Z,88.97
2023-05-05T03:35:09.856Z,89.16
2023-05-05T03:37:36.625Z,88.28
2023-05-05T03:40:03.902Z,88.57
2023-05-05T03:42:31.794Z,88.51
2023-05-05T03:44:58.572Z,89.18
2023-05-05T03:47:25.342Z,89.01
2023-05-05T03:49:53.592Z,90.00
2023-05-05T03:52:20.375Z,89.24
2023-05-05T03:54:47.319Z,88.83
2023-05-05T03:57:13.981Z,88.35
2023-05-05T03:59:41.113Z,88.88
2023-05-05T04:02:08.670Z,88.76
2023-05-05T04:04:35.689Z,88.90
2023-05-05T04:07:03.044Z,88.44
2023-05-05T04:09:29.883Z,88.56
2023-05-05T04:11:56.989Z,88.49
2023-05-05T04:14:24.405Z,88.66
2023-05-05T04:16:51.577Z,88.80
2023-05-05T04:19:18.689Z,88.72
2023-05-05T04:21:45.408Z,89.19
2023-05-05T04:24:12.139Z,88.32
2023-05-05T04:26:38.920Z,89.80
2023-05-05T04:29:05.612Z,89.25
2023-05-05T04:31:32.392Z,90.63
2023-05-05T04:33:59.487Z,90.48
2023-05-05T04:36:26.184Z,91.24
2023-05-05T04:38:54.002Z,90.78
2023-05-05T04:41:21.441Z,91.33
2023-05-05T04:43:48.795Z,91.57
2023-05-05T04:46:15.889Z,90.73
2023-05-05T04:48:42.892Z,91.12
2023-05-05T04:51:09.741Z,91.75
2023-05-05T04:53:37.446Z,92.48
2023-05-05T04:56:04.419Z,92.56
2023-05-05T04:58:31.332Z,93.12
2023-05-05T05:00:58.362Z,93.15
2023-05-05T05:03:25.194Z,93.30
2023-05-05T05:05:52.021Z,93.09
2023-05-05T05:08:18.882Z,92.58
2023-05-05T05:10:45.691Z,92.24
2023-05-05T05:13:13.042Z,91.77
2023-05-05T05:15:40.671Z,91.85
2023-05-05T05:18:07.407Z,91.08
2023-05-05T05:20:34.358Z,90.90
2023-05-05T05:23:02.348Z,90.28
2023-05-05T05:25:30.800Z,89.85
2023-05-05T05:28:09.022Z,89.83
2023-05-05T05:30:39.156Z,89.35
2023-05-05T05:33:07.541Z,89.01
2023-05-05T05:35:34.490Z,88.99
2023-05-05T05:38:01.346Z,88.54
2023-05-05T05:40:28.421Z,88.30
2023-05-05T05:42:55.408Z,88.53
2023-05-05T05:45:23.835Z,88.47
2023-05-05T05:47:51.050Z,88.06
2023-05-05T05:50:17.993Z,87.97
2023-05-05T05:52:45.057Z,87.55
2023-05-05T05:55:11.725Z,87.33
2023-05-05T05:57:39.392Z,87.03
2023-05-05T06:00:08.743Z,87.29
2023-05-05T06:02:38.595Z,86.09
2023-05-05T06:05:08.717Z,85.69
2023-05-05T06:07:35.522Z,85.96
2023-05-05T06:10:14.500Z,85.21
2023-05-05T06:12:49.442Z,83.86
2023-05-05T06:15:16.236Z,83.67
2023-05-05T06:17:43.125Z,83.12
2023-05-05T06:20:10.917Z,83.45
2023-05-05T06:22:37.597Z,83.12
2023-05-05T06:25:04.579Z,81.49
2023-05-05T06:27:31.280Z,81.73
2023-05-05T06:29:57.909Z,81.61
2023-05-05T06:32:24.646Z,81.69
2023-05-05T06:34:51.344Z,81.80
2023-05-05T06:37:18.072Z,81.37
2023-05-05T06:39:44.700Z,81.83
2023-05-05T06:42:11.381Z,82.29
2023-05-05T06:44:38.015Z,83.20
2023-05-05T06:47:04.803Z,82.97
2023-05-05T06:49:31.441Z,83.04
2023-05-05T06:51:58.114Z,82.72
2023-05-05T06:54:24.841Z,82.67
2023-05-05T06:56:51.487Z,81.75
2023-05-05T06:59:18.488Z,80.73
2023-05-05T07:01:45.225Z,81.44
2023-05-05T07:04:12.821Z,80.65
2023-05-05T07:06:39.610Z,78.68
2023-05-05T07:09:06.655Z,78.06
2023-05-05T07:11:33.411Z,76.42
2023-05-05T07:14:00.387Z,75.53
2023-05-05T07:16:27.413Z,74.11
2023-05-05T07:18:54.291Z,74.45
2023-05-05T07:21:20.947Z,73.45
2023-05-05T07:23:48.060Z,73.12
2023-05-05T07:26:15.226Z,72.70
2023-05-05T07:28:43.126Z,72.19
2023-05-05T07:31:09.897Z,71.70
2023-05-05T07:33:36.579Z,72.12
2023-05-05T07:36:03.547Z,71.73
2023-05-05T07:38:30.251Z,69.22
2023-05-05T07:40:56.892Z,68.76
2023-05-05T07:43:23.552Z,69.65
2023-05-05T07:45:50.312Z,67.59
2023-05-05T07:48:17.019Z,66.96
2023-05-05T07:50:43.711Z,67.28
2023-05-05T07:53:14.923Z,65.82
2023-05-05T07:55:42.271Z,63.78
2023-05-05T07:58:10.866Z,63.50
2023-05-05T08:00:38.225Z,64.17
2023-05-05T08:03:05.477Z,63.34
2023-05-05T08:05:32.653Z,64.12
2023-05-05T08:07:59.501Z,61.91
2023-05-05T08:10:26.228Z,61.84
2023-05-05T08:12:54.404Z,62.40
2023-05-05T08:15:21.606Z,63.31
2023-05-05T08:17:51.039Z,64.17
2023-05-05T08:20:19.779Z,65.38
2023-05-05T08:22:47.101Z,65.21
2023-05-05T08:25:14.406Z,66.39
2023-05-05T08:27:42.540Z,65.87
2023-05-05T08:30:09.917Z,66.38
2023-05-05T08:32:36.962Z,66.84
2023-05-05T08:35:06.811Z,69.60
2023-05-05T08:37:34.093Z,71.97
2023-05-05T08:40:00.794Z,73.31
2023-05-05T08:42:37.728Z,74.37
2023-05-05T08:45:08.291Z,74.92
2023-05-05T08:47:36.135Z,74.98
2023-05-05T08:50:05.681Z,75.30
2023-05-05T08:52:45.170Z,75.45
2023-05-05T08:55:28.109Z,75.96
2023-05-05T08:57:57.248Z,75.16
2023-05-05T09:00:26.538Z,75.18
2023-05-05T09:02:56.405Z,74.08
2023-05-05T09:05:23.728Z,75.05
2023-05-05T09:07:51.053Z,73.44
2023-05-05T09:10:18.097Z,73.21
2023-05-05T09:12:45.093Z,72.98
2023-05-05T09:15:13.951Z,70.99
2023-05-05T09:17:41.702Z,70.67
2023-05-05T09:20:09.578Z,71.55
2023-05-05T09:22:36.147Z,71.55
2023-05-05T09:25:04.567Z,73.38
2023-05-05T09:27:35.403Z,73.47
2023-05-05T09:30:03.573Z,73.11
2023-05-05T09:32:31.261Z,75.96
2023-05-05T09:35:01.464Z,77.16
2023-05-05T09:37:31.587Z,79.87
2023-05-05T09:40:03.048Z,83.45
2023-05-05T09:42:29.830Z,83.66
2023-05-05T09:44:59.660Z,86.15
2023-05-05T09:47:37.355Z,85.78
2023-05-05T09:50:06.053Z,86.98
2023-05-05T09:52:32.929Z,88.05
2023-05-05T09:54:59.697Z,90.63
2023-05-05T09:57:35.395Z,91.30
2023-05-05T10:00:04.277Z,91.28
2023-05-05T10:02:32.999Z,92.49
2023-05-05T10:05:13.336Z,92.28
2023-05-05T10:07:42.514Z,91.71
2023-05-05T10:10:14.727Z,92.88
2023-05-05T10:12:42.224Z,94.38
2023-05-05T10:15:10.785Z,94.80
2023-05-05T10:20:21.150Z,97.58
2023-05-05T10:22:53.184Z,99.12
2023-05-05T10:25:38.825Z,97.77
2023-05-05T10:28:08.038Z,95.51
2023-05-05T10:30:41.704Z,95.12
2023-05-05T10:33:34.101Z,94.75
2023-05-05T10:36:06.608Z,94.22
2023-05-05T10:38:34.280Z,93.65
2023-05-05T10:41:02.265Z,94.50
2023-05-05T10:43:31.412Z,95.27
2023-05-05T10:45:59.178Z,97.18
2023-05-05T10:48:37.969Z,97.63
2023-05-05T10:51:38.640Z,96.79
2023-05-05T10:54:17.195Z,94.24
2023-05-05T10:56:44.015Z,95.63
2023-05-05T10:59:38.944Z,94.53
2023-05-05T11:02:28.049Z,95.02
2023-05-05T11:05:08.203Z,95.87
2023-05-05T11:07:35.536Z,96.77
2023-05-05T11:10:04.670Z,96.63
2023-05-05T11:12:33.112Z,96.46
2023-05-05T11:15:26.157Z,94.94
2023-05-05T11:17:54.261Z,96.97
2023-05-05T11:20:36.952Z,97.23
2023-05-05T11:23:21.651Z,95.93
2023-05-05T11:25:48.511Z,95.33
2023-05-05T11:28:17.176Z,96.31
2023-05-05T11:30:56.290Z,96.76
2023-05-05T11:33:28.354Z,97.02
2023-05-05T11:36:05.093Z,96.44
2023-05-05T11:38:39.018Z,95.88
2023-05-05T11:41:18.038Z,95.21
2023-05-05T11:43:44.833Z,96.26
2023-05-05T11:46:12.878Z,94.28
2023-05-05T11:48:47.371Z,94.17
2023-05-05T11:51:14.765Z,95.00
2023-05-05T11:53:48.794Z,94.05
2023-05-05T11:56:19.326Z,94.71
2023-05-05T11:58:47.725Z,94.15
2023-05-05T12:01:15.701Z,94.35
2023-05-05T12:03:45.387Z,94.59
2023-05-05T12:06:13.121Z,94.27
2023-05-05T12:08:40.963Z,94.72
2023-05-05T12:11:09.971Z,93.72
2023-05-05T12:13:36.870Z,93.05
2023-05-05T12:16:14.326Z,91.98
2023-05-05T12:18:41.902Z,91.84
2023-05-05T12:21:19.348Z,90.17
2023-05-05T12:23:46.483Z,87.34
2023-05-05T12:26:27.654Z,87.94
2023-05-05T12:28:55.399Z,81.55
2023-05-05T12:31:22.016Z,81.75
2023-05-05T12:33:49.119Z,82.77
2023-05-05T12:36:16.461Z,82.75
2023-05-05T12:38:43.210Z,81.62
2023-05-05T12:41:09.964Z,82.41
2023-05-05T12:43:36.874Z,81.47
2023-05-05T12:46:08.800Z,80.79
2023-05-05T12:48:40.452Z,76.52
2023-05-05T12:51:21.359Z,79.91
2023-05-05T12:53:49.922Z,75.35
2023-05-05T12:56:29.581Z,76.72
2023-05-05T12:58:56.880Z,78.29
2023-05-05T13:01:23.607Z,81.13
2023-05-05T13:04:07.477Z,77.90
2023-05-05T13:06:34.449Z,79.20
2023-05-05T13:09:01.111Z,82.40
2023-05-05T13:11:27.834Z,84.05
2023-05-05T13:13:54.605Z,84.64
2023-05-05T13:16:21.335Z,83.75
2023-05-05T13:18:50.770Z,82.50
2023-05-05T13:21:17.606Z,82.50
2023-05-05T13:23:44.948Z,82.75
2023-05-05T13:26:13.510Z,84.11
2023-05-05T13:28:40.801Z,82.29
2023-05-05T13:31:07.785Z,79.86
2023-05-05T13:33:35.032Z,77.39
2023-05-05T13:36:02.947Z,76.28
2023-05-05T13:38:33.101Z,75.21
2023-05-05T13:41:00.160Z,74.47
2023-05-05T13:43:26.833Z,72.22
2023-05-05T13:45:53.633Z,71.07
2023-05-05T13:48:20.839Z,65.23
2023-05-05T13:50:47.696Z,59.06
2023-05-05T13:53:15.088Z,57.23
2023-05-05T13:55:42.805Z,56.96
2023-05-05T13:58:12.698Z,60.33
2023-05-05T14:00:39.901Z,63.98
2023-05-05T14:03:06.574Z,66.40
2023-05-05T14:05:34.022Z,66.10
2023-05-05T14:08:00.662Z,68.14
2023-05-05T14:10:29.826Z,64.97
2023-05-05T14:12:57.272Z,60.85
2023-05-05T14:15:24.034Z,57.36
2023-05-05T14:17:51.068Z,57.38
2023-05-05T14:20:17.907Z,60.25
2023-05-05T14:22:44.530Z,62.02
2023-05-05T14:25:11.286Z,60.88
2023-05-05T14:27:37.911Z,52.21
2023-05-05T14:30:05.182Z,49.38
2023-05-05T14:32:31.916Z,55.57
2023-05-05T14:34:58.561Z,56.94
2023-05-05T14:37:25.249Z,57.25
2023-05-05T14:39:51.915Z,51.15
2023-05-05T14:42:18.559Z,46.19
2023-05-05T14:44:45.483Z,44.34
2023-05-05T14:47:12.381Z,42.80
2023-05-05T14:49:39.019Z,42.46
2023-05-05T14:52:05.680Z,44.33
2023-05-05T14:54:32.513Z,49.72
2023-05-05T14:56:59.460Z,55.70
2023-05-05T14:59:27.595Z,60.67
2023-05-05T15:01:54.792Z,63.43
2023-05-05T15:04:21.614Z,65.94
2023-05-05T15:06:48.212Z,66.88
2023-05-05T15:09:14.998Z,68.48
2023-05-05T15:11:41.687Z,69.50
2023-05-05T15:14:08.493Z,75.92
2023-05-05T15:16:35.568Z,76.65
2023-05-05T15:19:02.429Z,76.09
2023-05-05T15:21:29.213Z,77.76
2023-05-05T15:23:56.056Z,76.44
2023-05-05T15:26:23.907Z,72.13
2023-05-05T15:28:52.493Z,70.74
2023-05-05T15:31:19.193Z,60.54
2023-05-05T15:33:48.470Z,55.40
2023-05-05T15:36:15.171Z,54.61
2023-05-05T15:38:45.145Z,50.91
2023-05-05T15:41:11.828Z,49.28
2023-05-05T15:43:38.506Z,45.07
2023-05-05T15:46:05.279Z,47.51
2023-05-05T15:48:31.955Z,53.78
2023-05-05T15:50:58.621Z,52.06
2023-05-05T15:53:26.752Z,54.85
2023-05-05T15:55:53.409Z,52.07
2023-05-05T15:58:20.084Z,52.00
2023-05-05T16:00:46.729Z,47.07
2023-05-05T16:03:13.463Z,47.85
2023-05-05T16:05:40.127Z,46.73
2023-05-05T16:08:09.730Z,45.91
2023-05-05T16:10:39.402Z,44.62
2023-05-05T16:13:06.278Z,44.55
2023-05-05T16:15:34.628Z,46.02
2023-05-05T16:18:01.402Z,47.33
2023-05-05T16:20:29.715Z,48.00
2023-05-05T16:22:57.336Z,46.81
2023-05-05T16:25:23.944Z,46.89
2023-05-05T16:27:50.661Z,47.95
2023-05-05T16:30:17.392Z,50.18
2023-05-05T16:32:44.094Z,49.60
2023-05-05T16:35:12.134Z,49.40
2023-05-05T16:37:38.808Z,51.02
2023-05-05T16:40:06.720Z,52.02
2023-05-05T16:42:33.513Z,53.97
2023-05-05T16:45:00.312Z,53.55
2023-05-05T16:47:27.365Z,53.58
2023-05-05T16:49:54.063Z,54.70
2023-05-05T16:52:20.745Z,54.45
2023-05-05T16:54:49.276Z,55.44
2023-05-05T16:57:15.974Z,56.32
2023-05-05T16:59:42.620Z,58.75
2023-05-05T17:02:09.485Z,59.49
2023-05-05T17:04:36.133Z,58.83
2023-05-05T17:07:02.858Z,58.65
2023-05-05T17:09:29.478Z,60.92
2023-05-05T17:11:56.244Z,60.49
2023-05-05T17:14:24.368Z,60.67
2023-05-05T17:16:51.267Z,62.08
2023-05-05T17:19:17.966Z,62.99
2023-05-05T17:21:44.665Z,65.84
2023-05-05T17:24:11.440Z,67.61
2023-05-05T17:26:38.831Z,70.88
2023-05-05T17:29:05.477Z,68.48
2023-05-05T17:31:32.300Z,68.56
2023-05-05T17:33:58.988Z,68.13
2023-05-05T17:36:25.688Z,69.45
2023-05-05T17:38:52.326Z,70.75
2023-05-05T17:41:18.979Z,72.66
2023-05-05T17:43:45.740Z,73.95
2023-05-05T17:46:12.402Z,72.67
2023-05-05T17:48:39.225Z,71.54
2023-05-05T17:51:05.935Z,70.54
2023-05-05T17:53:32.674Z,70.29
2023-05-05T17:55:59.389Z,72.56
2023-05-05T17:58:26.099Z,71.02
2023-05-05T18:00:52.762Z,71.84
2023-05-05T18:03:19.613Z,72.13
2023-05-05T18:05:46.516Z,73.08
2023-05-05T18:08:13.221Z,72.67
2023-05-05T18:10:39.913Z,71.12
2023-05-05T18:13:06.609Z,70.72
2023-05-05T18:15:33.612Z,69.54
2023-05-05T18:18:01.183Z,66.43
2023-05-05T18:20:27.933Z,65.30
2023-05-05T18:22:54.660Z,68.07
2023-05-05T18:25:21.360Z,70.02
2023-05-05T18:27:48.160Z,72.04
2023-05-05T18:30:14.956Z,74.99
2023-05-05T18:32:41.614Z,76.75
2023-05-05T18:35:08.873Z,78.48
2023-05-05T18:37:35.796Z,79.58
2023-05-05T18:40:02.596Z,80.24
2023-05-05T18:42:29.279Z,81.90
2023-05-05T18:44:56.046Z,82.63
2023-05-05T18:47:23.590Z,83.95
2023-05-05T18:49:50.239Z,85.60
2023-05-05T18:52:17.037Z,85.23
2023-05-05T18:54:43.761Z,85.44
2023-05-05T18:57:10.416Z,85.86
2023-05-05T18:59:37.336Z,86.34
2023-05-05T19:02:04.147Z,87.32
2023-05-05T19:04:32.220Z,86.74
2023-05-05T19:06:59.509Z,87.59
2023-05-05T19:09:26.407Z,88.10
2023-05-05T19:11:53.283Z,88.55
2023-05-05T19:14:19.970Z,89.28
2023-05-05T19:16:46.968Z,89.40
2023-05-05T19:19:13.723Z,90.49
2023-05-05T19:21:40.400Z,90.03
2023-05-05T19:24:08.891Z,89.61
2023-05-05T19:26:35.796Z,89.39
2023-05-05T19:29:02.466Z,90.40
2023-05-05T19:31:30.962Z,90.12
2023-05-05T19:33:59.764Z,90.33
2023-05-05T19:36:27.720Z,90.50
2023-05-05T19:38:55.288Z,90.69
2023-05-05T19:41:21.965Z,90.79
2023-05-05T19:43:49.913Z,91.57
2023-05-05T19:46:17.278Z,91.54
2023-05-05T19:48:44.406Z,91.60
2023-05-05T19:51:11.435Z,91.93
2023-05-05T19:53:40.117Z,92.70
2023-05-05T19:56:06.843Z,92.87
2023-05-05T19:59:01.786Z,93.28
2023-05-05T20:01:28.953Z,92.93
2023-05-05T20:03:56.588Z,93.58
2023-05-05T20:06:23.694Z,93.72
2023-05-05T20:08:50.506Z,94.51
2023-05-05T20:11:17.651Z,94.40
2023-05-05T20:13:44.698Z,94.75
2023-05-05T20:16:12.174Z,95.19
2023-05-05T20:18:38.911Z,94.96
2023-05-05T20:21:06.247Z,95.41
2023-05-05T20:23:33.636Z,94.62
2023-05-05T20:26:00.603Z,95.44
2023-05-05T20:28:27.374Z,95.60
2023-05-05T20:30:54.065Z,95.41
2023-05-05T20:33:20.688Z,95.69
2023-05-05T20:35:47.450Z,96.12
2023-05-05T20:38:14.112Z,96.29
2023-05-05T20:40:41.522Z,96.26
2023-05-05T20:43:08.216Z,96.53
2023-05-05T20:45:35.024Z,96.19
2023-05-05T20:48:01.976Z,96.96
2023-05-05T20:50:28.764Z,96.53
2023-05-05T20:52:55.808Z,96.84
2023-05-05T20:55:22.606Z,97.08
2023-05-05T20:57:49.294Z,97.09
2023-05-05T21:00:16.168Z,96.93
2023-05-05T21:02:43.065Z,97.08
2023-05-05T21:05:10.056Z,97.28
2023-05-05T21:07:36.917Z,97.57
2023-05-05T21:10:04.879Z,97.93
2023-05-05T21:12:31.554Z,98.38
2023-05-05T21:14:58.948Z,98.11
2023-05-05T21:17:26.767Z,97.95
2023-05-05T21:19:54.152Z,97.43
2023-05-05T21:22:21.360Z,97.85
2023-05-05T21:24:48.256Z,97.74
2023-05-05T21:27:15.214Z,98.22
2023-05-05T21:29:41.992Z,97.85
2023-05-05T21:32:10.520Z,97.55
2023-05-05T21:34:38.694Z,97.72
2023-05-05T21:37:06.502Z,98.01
2023-05-05T21:39:33.547Z,98.26
2023-05-05T21:42:00.821Z,97.90
2023-05-05T21:44:28.283Z,98.12
2023-05-05T21:46:55.683Z,98.14
2023-05-05T21:49:22.561Z,98.19
2023-05-05T21:51:50.240Z,98.28
2023-05-05T21:54:16.995Z,99.12
2023-05-05T21:56:43.776Z,99.37
2023-05-05T21:59:11.117Z,99.05
2023-05-05T22:01:37.859Z,99.52
2023-05-05T22:04:04.684Z,99.29
2023-05-05T22:06:32.478Z,99.97
2023-05-05T22:08:59.145Z,100.00
2023-05-05T22:11:26.099Z,100.00
2023-05-05T22:13:52.746Z,100.00
2023-05-05T22:16:19.527Z,100.00
2023-05-05T22:18:46.843Z,100.00
2023-05-05T22:21:13.810Z,100.00
2023-05-05T22:23:41.977Z,100.00
2023-05-05T22:26:09.804Z,100.00
2023-05-05T22:28:36.600Z,100.00
2023-05-05T22:31:03.606Z,100.00
2023-05-05T22:33:30.762Z,100.00
2023-05-05T22:35:57.549Z,100.00
2023-05-05T22:38:24.221Z,100.00
2023-05-05T22:40:50.905Z,100.00
2023-05-05T22:43:17.666Z,100.00
2023-05-05T22:45:44.542Z,100.00
2023-05-05T22:48:11.385Z,100.00
2023-05-05T22:50:38.203Z,100.00
2023-05-05T22:53:04.916Z,100.00
2023-05-05T22:55:31.608Z,100.00
2023-05-05T22:57:58.308Z,100.00
2023-05-05T23:00:25.193Z,100.00
2023-05-05T23:02:51.926Z,100.00
2023-05-05T23:05:18.721Z,100.00
2023-05-05T23:07:45.533Z,100.00
2023-05-05T23:10:12.187Z,100.00
2023-05-05T23:12:38.947Z,100.00
2023-05-05T23:15:06.228Z,100.00
2023-05-05T23:17:32.973Z,100.00
2023-05-05T23:19:59.660Z,100.00
2023-05-05T23:22:26.366Z,100.00
2023-05-05T23:24:53.274Z,100.00
2023-05-05T23:27:19.885Z,100.00
2023-05-05T23:29:46.513Z,100.00
2023-05-05T23:32:13.221Z,100.00
2023-05-05T23:34:39.890Z,100.00
2023-05-05T23:37:06.590Z,100.00
2023-05-05T23:39:34.543Z,100.00
2023-05-05T23:42:01.217Z,100.00
2023-05-05T23:44:27.821Z,100.00
2023-05-05T23:46:54.600Z,100.00
2023-05-05T23:49:21.319Z,100.00
2023-05-05T23:51:47.963Z,100.00
2023-05-05T23:54:14.678Z,100.00
2023-05-05T23:56:41.316Z,100.00
2023-05-05T23:59:08.347Z,100.00
